West Bloomfield, New York
Current Conditions -  °F | °C
As of 2:54 PM on Saturday 20 Dec 2014 (Local Time) from KROC Reporting Station
Broken Clouds Broken Clouds  
Wind Chill: 31°   Ceiling: 2300
Heat Index: 31°   Visibility: 10mi
Dew Point: 22°   Wind: 3mph
Humidity: 69%   Direction: 230°SW
Pressure: 30.24"   Gusts: NA
Location:  42.91°N, 77.54°W
Report Text: KROC 201954Z 23003KT 10SM BKN023 M01/M06 A3024 RMK AO2 SLP251 T10061056
Loading
Personal Weather Stations






























Interactive Weather Map New forecast layout! Learn more

10-Day Weather Forecast

Advertisements
Track Severe Weather on mobile